Time;durP1;ratioP1;P1;durP2;ratioP2;P2;SDS_P1;SDS_P2;PMS_P1;PMS_P2;Temp;Humidity;BMP_temperature;BMP_pressure;BME280_temperature;BME280_humidity;BME280_pressure;Samples;Min_cycle;Max_cycle;Signal;HPM_P1;HPM_P2
2022/03/15 00:00:47;;;;;;;11.20;4.25;;;;;;;;;;5074840;28;20053;-61
2022/03/15 00:03:13;;;;;;;13.50;4.50;;;;;;;;;;5068072;28;20048;-61
2022/03/15 00:05:40;;;;;;;14.00;4.57;;;;;;;;;;5074361;28;20052;-61
2022/03/15 00:08:07;;;;;;;14.07;4.50;;;;;;;;;;5085260;28;20060;-61
2022/03/15 00:10:33;;;;;;;12.15;4.25;;;;;;;;;;5066706;28;20177;-62
2022/03/15 00:13:00;;;;;;;12.13;4.53;;;;;;;;;;5069487;28;20053;-61
2022/03/15 00:15:26;;;;;;;13.93;4.45;;;;;;;;;;5086684;28;20064;-61
2022/03/15 00:17:53;;;;;;;15.40;4.63;;;;;;;;;;5075661;28;20063;-62
2022/03/15 00:20:23;;;;;;;18.10;5.85;;;;;;;;;;5069177;28;20073;-62
2022/03/15 00:22:51;;;;;;;12.75;5.20;;;;;;;;;;5069042;28;20103;-61
2022/03/15 00:25:18;;;;;;;13.40;4.50;;;;;;;;;;5068311;28;20045;-62
2022/03/15 00:27:45;;;;;;;13.43;4.32;;;;;;;;;;5075090;28;20114;-62
2022/03/15 00:30:12;;;;;;;12.73;5.13;;;;;;;;;;5068950;28;20325;-62
2022/03/15 00:32:39;;;;;;;18.17;6.32;;;;;;;;;;5069705;28;20148;-62
2022/03/15 00:35:07;;;;;;;17.38;5.53;;;;;;;;;;5060663;28;20114;-62
2022/03/15 00:37:35;;;;;;;17.17;4.72;;;;;;;;;;5061783;28;20048;-61
2022/03/15 00:40:02;;;;;;;13.70;4.90;;;;;;;;;;5068174;28;20057;-62
2022/03/15 00:42:28;;;;;;;16.17;4.97;;;;;;;;;;5065755;28;20093;-61
2022/03/15 00:44:55;;;;;;;10.43;3.85;;;;;;;;;;5067081;28;20057;-62
2022/03/15 00:47:21;;;;;;;13.73;4.63;;;;;;;;;;5076506;28;20045;-62
2022/03/15 00:49:47;;;;;;;16.38;4.70;;;;;;;;;;5067970;28;20049;-62
2022/03/15 00:52:14;;;;;;;13.07;4.53;;;;;;;;;;5083493;28;20567;-62
2022/03/15 00:54:40;;;;;;;13.57;4.68;;;;;;;;;;5086839;28;20049;-61
2022/03/15 00:57:07;;;;;;;17.80;5.75;;;;;;;;;;5083916;28;20490;-62
2022/03/15 00:59:33;;;;;;;13.27;4.13;;;;;;;;;;5069640;28;20140;-62
2022/03/15 01:02:00;;;;;;;13.35;4.32;;;;;;;;;;5078285;28;20068;-62
2022/03/15 01:04:27;;;;;;;14.38;4.95;;;;;;;;;;5075816;28;20053;-61
2022/03/15 01:06:53;;;;;;;17.60;4.72;;;;;;;;;;5068768;28;20053;-61
2022/03/15 01:09:19;;;;;;;15.43;4.40;;;;;;;;;;5069992;28;20068;-61
2022/03/15 01:11:46;;;;;;;14.27;4.10;;;;;;;;;;5075487;28;20504;-61
2022/03/15 01:14:12;;;;;;;15.75;4.47;;;;;;;;;;5073685;28;20102;-62
2022/03/15 01:16:38;;;;;;;14.63;5.40;;;;;;;;;;5079719;28;20053;-62
2022/03/15 01:19:07;;;;;;;16.30;4.82;;;;;;;;;;5066491;28;20085;-62
2022/03/15 01:21:35;;;;;;;;;;;;;;;;;;5076738;28;20095;-62
2022/03/15 01:24:01;;;;;;;13.15;4.40;;;;;;;;;;5065731;28;45788;-62
2022/03/15 01:26:27;;;;;;;15.45;5.03;;;;;;;;;;5070822;28;20067;-61
2022/03/15 01:28:53;;;;;;;12.30;4.25;;;;;;;;;;5065961;28;20053;-62
2022/03/15 01:31:20;;;;;;;13.32;4.95;;;;;;;;;;5067623;28;20061;-61
2022/03/15 01:33:46;;;;;;;19.65;5.72;;;;;;;;;;5075374;28;20057;-62
2022/03/15 01:36:13;;;;;;;15.18;4.53;;;;;;;;;;5090453;28;20909;-62
2022/03/15 01:38:39;;;;;;;14.45;4.68;;;;;;;;;;5069071;28;20053;-61
2022/03/15 01:41:05;;;;;;;14.52;4.80;;;;;;;;;;5069542;28;20079;-61
2022/03/15 01:43:33;;;;;;;16.27;4.72;;;;;;;;;;5072292;28;20493;-62
2022/03/15 01:46:00;;;;;;;13.90;4.85;;;;;;;;;;5081494;28;20663;-62
2022/03/15 01:48:26;;;;;;;12.98;4.65;;;;;;;;;;5069948;28;20545;-61
2022/03/15 01:50:53;;;;;;;16.60;4.43;;;;;;;;;;5073824;28;20148;-62
2022/03/15 01:53:19;;;;;;;17.25;4.80;;;;;;;;;;5069786;28;20144;-62
2022/03/15 01:55:45;;;;;;;12.52;4.55;;;;;;;;;;5076839;28;20053;-62
2022/03/15 01:58:12;;;;;;;11.30;4.32;;;;;;;;;;5084097;28;20053;-62
2022/03/15 02:00:38;;;;;;;15.18;4.68;;;;;;;;;;5076813;28;20968;-62
2022/03/15 02:03:05;;;;;;;17.95;4.97;;;;;;;;;;5082554;28;20140;-62
2022/03/15 02:05:32;;;;;;;14.30;4.60;;;;;;;;;;5084378;28;21055;-62
2022/03/15 02:08:06;;;;;;;12.75;4.88;;;;;;;;;;5082693;28;20508;-61
2022/03/15 02:10:34;;;;;;;17.98;5.18;;;;;;;;;;5071694;28;20857;-61
2022/03/15 02:13:00;;;;;;;10.63;4.38;;;;;;;;;;5074631;28;20045;-62
2022/03/15 02:15:27;;;;;;;17.13;4.43;;;;;;;;;;5068489;28;20049;-61
2022/03/15 02:17:53;;;;;;;20.40;4.95;;;;;;;;;;5068195;28;20740;-61
2022/03/15 02:20:19;;;;;;;14.48;4.30;;;;;;;;;;5069695;28;20052;-61
2022/03/15 02:22:45;;;;;;;12.93;4.28;;;;;;;;;;5087134;28;20129;-61
2022/03/15 02:25:12;;;;;;;15.77;4.47;;;;;;;;;;5071786;28;20044;-62
2022/03/15 02:27:39;;;;;;;14.48;4.78;;;;;;;;;;5069203;28;20209;-62
2022/03/15 02:30:06;;;;;;;20.27;5.57;;;;;;;;;;5070201;28;20049;-61
2022/03/15 02:32:33;;;;;;;14.65;4.07;;;;;;;;;;5069788;28;20049;-61
2022/03/15 02:34:59;;;;;;;14.23;4.43;;;;;;;;;;5087061;28;20053;-61
2022/03/15 02:37:25;;;;;;;15.68;4.70;;;;;;;;;;5082131;28;20525;-61
2022/03/15 02:39:52;;;;;;;13.60;4.85;;;;;;;;;;5083211;28;20210;-62
2022/03/15 02:42:18;;;;;;;18.33;5.28;;;;;;;;;;5086268;28;20048;-61
2022/03/15 02:44:45;;;;;;;12.25;4.35;;;;;;;;;;5086848;28;20164;-61
2022/03/15 02:47:12;;;;;;;13.82;4.82;;;;;;;;;;5084189;28;20052;-61
2022/03/15 02:49:38;;;;;;;15.77;4.88;;;;;;;;;;5089807;28;20043;-61
2022/03/15 02:52:04;;;;;;;13.98;5.25;;;;;;;;;;5085953;28;20529;-61
2022/03/15 02:54:31;;;;;;;17.27;5.38;;;;;;;;;;5088519;28;20084;-61
2022/03/15 02:56:57;;;;;;;16.30;5.22;;;;;;;;;;5074457;28;20056;-61
2022/03/15 02:59:24;;;;;;;11.82;4.32;;;;;;;;;;5083892;28;20520;-62
2022/03/15 03:01:50;;;;;;;11.63;5.00;;;;;;;;;;5086527;28;20060;-61
2022/03/15 03:04:19;;;;;;;17.08;5.45;;;;;;;;;;5072598;28;20515;-61
2022/03/15 03:06:45;;;;;;;12.93;4.60;;;;;;;;;;5075673;28;20115;-61
2022/03/15 03:09:12;;;;;;;12.00;5.40;;;;;;;;;;5089072;28;20560;-61
2022/03/15 03:11:38;;;;;;;14.77;4.88;;;;;;;;;;5085280;28;20067;-61
2022/03/15 03:14:12;;;;;;;11.10;4.90;;;;;;;;;;5077778;28;20060;-61
2022/03/15 03:16:39;;;;;;;14.27;5.30;;;;;;;;;;5075857;28;20489;-61
2022/03/15 03:19:08;;;;;;;15.45;4.70;;;;;;;;;;5074618;28;20121;-62
2022/03/15 03:21:36;;;;;;;13.98;5.40;;;;;;;;;;5069590;28;20045;-63
2022/03/15 03:24:06;;;;;;;15.98;4.80;;;;;;;;;;5070679;28;20119;-61
2022/03/15 03:26:37;;;;;;;15.18;5.07;;;;;;;;;;5076492;28;20048;-62
2022/03/15 03:29:09;;;;;;;12.60;5.72;;;;;;;;;;5074783;28;20059;-62
2022/03/15 03:31:37;;;;;;;16.35;5.07;;;;;;;;;;5076749;28;20149;-62
2022/03/15 03:34:04;;;;;;;13.97;5.30;;;;;;;;;;5087006;28;20048;-61
2022/03/15 03:36:31;;;;;;;14.10;4.97;;;;;;;;;;5083856;28;20525;-61
2022/03/15 03:39:17;;;;;;;14.45;5.55;;;;;;;;;;5069525;28;20053;-61
2022/03/15 03:41:44;;;;;;;15.07;5.75;;;;;;;;;;5084272;28;20053;-61
2022/03/15 03:44:10;;;;;;;14.27;5.75;;;;;;;;;;5082824;28;20049;-61
2022/03/15 03:46:36;;;;;;;15.20;5.63;;;;;;;;;;5072616;28;20056;-61
2022/03/15 03:49:03;;;;;;;15.10;5.63;;;;;;;;;;5080366;28;20143;-61
2022/03/15 03:51:29;;;;;;;16.92;4.93;;;;;;;;;;5086589;28;20051;-61
2022/03/15 03:53:55;;;;;;;12.05;5.45;;;;;;;;;;5085613;28;20506;-61
2022/03/15 03:56:22;;;;;;;14.73;5.80;;;;;;;;;;5087177;28;20132;-62
2022/03/15 03:58:48;;;;;;;14.18;6.13;;;;;;;;;;5069952;28;20053;-62
2022/03/15 04:01:14;;;;;;;14.32;6.13;;;;;;;;;;5070956;28;20052;-61
2022/03/15 04:03:42;;;;;;;15.93;6.20;;;;;;;;;;5075358;28;20056;-61
2022/03/15 04:06:09;;;;;;;15.43;5.68;;;;;;;;;;5082139;28;20582;-61
2022/03/15 04:08:35;;;;;;;18.00;6.40;;;;;;;;;;5067973;28;20052;-61
2022/03/15 04:11:02;;;;;;;17.00;5.97;;;;;;;;;;5070945;28;20091;-61
2022/03/15 04:13:28;;;;;;;17.73;6.88;;;;;;;;;;5071369;28;20053;-61
2022/03/15 04:15:54;;;;;;;19.40;6.25;;;;;;;;;;5067205;28;20198;-62
2022/03/15 04:18:21;;;;;;;18.90;6.47;;;;;;;;;;5069516;28;20057;-61
2022/03/15 04:20:47;;;;;;;18.63;7.43;;;;;;;;;;5085329;28;20151;-61
2022/03/15 04:23:14;;;;;;;19.95;7.05;;;;;;;;;;5068078;28;20083;-61
2022/03/15 04:25:41;;;;;;;16.77;6.45;;;;;;;;;;5066979;28;20152;-61
2022/03/15 04:28:08;;;;;;;20.20;6.72;;;;;;;;;;5071935;28;20088;-61
2022/03/15 04:30:34;;;;;;;19.05;6.72;;;;;;;;;;5087232;28;20053;-61
2022/03/15 04:33:01;;;;;;;19.75;7.13;;;;;;;;;;5068548;28;20060;-61
2022/03/15 04:35:29;;;;;;;14.68;6.53;;;;;;;;;;5072987;28;20049;-61
2022/03/15 04:37:56;;;;;;;17.73;7.03;;;;;;;;;;5086659;28;20132;-61
2022/03/15 04:40:22;;;;;;;18.25;7.13;;;;;;;;;;5088411;28;20267;-61
2022/03/15 04:42:49;;;;;;;19.40;6.68;;;;;;;;;;5072356;28;20057;-61
2022/03/15 04:45:15;;;;;;;23.13;7.18;;;;;;;;;;5067087;28;20059;-61
2022/03/15 04:47:41;;;;;;;19.60;7.65;;;;;;;;;;5072398;28;20037;-61
2022/03/15 04:50:09;;;;;;;19.23;6.75;;;;;;;;;;5067937;28;20053;-61
2022/03/15 04:52:35;;;;;;;14.30;7.22;;;;;;;;;;5084326;28;20084;-61
2022/03/15 04:55:03;;;;;;;19.30;7.45;;;;;;;;;;5083393;28;20056;-61
2022/03/15 04:57:29;;;;;;;19.08;7.10;;;;;;;;;;5069975;28;20128;-61
2022/03/15 04:59:55;;;;;;;16.80;8.07;;;;;;;;;;5066937;28;20175;-61
2022/03/15 05:02:23;;;;;;;23.15;6.97;;;;;;;;;;5082598;28;20099;-61
2022/03/15 05:04:51;;;;;;;16.98;7.50;;;;;;;;;;5067262;28;20051;-61
2022/03/15 05:07:18;;;;;;;20.25;8.18;;;;;;;;;;5067803;28;20152;-61
2022/03/15 05:12:29;;;;;;;20.55;8.40;;;;;;;;;;5086663;28;20068;-61
2022/03/15 05:14:56;;;;;;;20.30;7.57;;;;;;;;;;5075927;28;20047;-61
2022/03/15 05:17:23;;;;;;;18.75;8.63;;;;;;;;;;5082943;28;20580;-62
2022/03/15 05:19:49;;;;;;;14.68;7.32;;;;;;;;;;5083359;28;20133;-61
2022/03/15 05:22:16;;;;;;;18.33;7.30;;;;;;;;;;5075318;28;20877;-61
2022/03/15 05:24:43;;;;;;;16.67;8.00;;;;;;;;;;5077606;28;20089;-61
2022/03/15 05:27:10;;;;;;;19.80;7.97;;;;;;;;;;5071771;28;20131;-61
2022/03/15 05:29:36;;;;;;;19.58;7.97;;;;;;;;;;5070546;28;20644;-61
2022/03/15 05:32:03;;;;;;;16.20;7.28;;;;;;;;;;5068792;28;20088;-62
2022/03/15 05:34:29;;;;;;;17.85;7.95;;;;;;;;;;5071362;28;20081;-61
2022/03/15 05:36:55;;;;;;;21.00;8.07;;;;;;;;;;5073797;28;20532;-62
2022/03/15 05:39:22;;;;;;;16.85;7.38;;;;;;;;;;5084124;28;20049;-61
2022/03/15 05:41:48;;;;;;;17.38;8.32;;;;;;;;;;5086839;28;20150;-61
2022/03/15 05:44:15;;;;;;;15.65;7.30;;;;;;;;;;5089035;28;20049;-61
2022/03/15 05:46:41;;;;;;;19.38;7.97;;;;;;;;;;5087942;28;20052;-61
2022/03/15 05:49:07;;;;;;;18.92;7.88;;;;;;;;;;5085478;28;20953;-61
2022/03/15 05:51:34;;;;;;;22.90;8.20;;;;;;;;;;5071889;28;20053;-61
2022/03/15 05:54:01;;;;;;;22.38;8.50;;;;;;;;;;5080940;28;20537;-61
2022/03/15 05:56:27;;;;;;;18.60;7.88;;;;;;;;;;5082020;28;20085;-61
2022/03/15 05:58:53;;;;;;;23.95;8.25;;;;;;;;;;5067145;28;20877;-61
2022/03/15 06:01:20;;;;;;;21.00;8.18;;;;;;;;;;5074494;28;20055;-61
2022/03/15 06:03:46;;;;;;;17.63;7.07;;;;;;;;;;5075041;28;20141;-61
2022/03/15 06:06:13;;;;;;;17.50;7.38;;;;;;;;;;5077656;28;20052;-61
2022/03/15 06:08:39;;;;;;;16.48;8.02;;;;;;;;;;5080285;28;20517;-61
2022/03/15 06:11:05;;;;;;;17.58;7.47;;;;;;;;;;5081280;28;20051;-61
2022/03/15 06:13:32;;;;;;;23.85;9.35;;;;;;;;;;5086566;28;20429;-61
2022/03/15 06:15:58;;;;;;;22.02;9.65;;;;;;;;;;5084766;28;20049;-61
2022/03/15 06:18:24;;;;;;;22.42;10.30;;;;;;;;;;5086211;28;20520;-61
2022/03/15 06:20:51;;;;;;;21.33;10.38;;;;;;;;;;5084288;27;20060;-61
2022/03/15 06:23:18;;;;;;;23.73;11.35;;;;;;;;;;5089012;28;20184;-61
2022/03/15 06:25:45;;;;;;;25.75;12.48;;;;;;;;;;5075503;28;20059;-61
2022/03/15 06:28:11;;;;;;;28.80;12.52;;;;;;;;;;5071377;28;20053;-61
2022/03/15 06:30:37;;;;;;;35.63;14.85;;;;;;;;;;5088175;28;20067;-61
2022/03/15 06:33:04;;;;;;;34.47;14.70;;;;;;;;;;5088854;28;20088;-61
2022/03/15 06:35:31;;;;;;;32.30;13.63;;;;;;;;;;5089859;28;20463;-62
2022/03/15 06:37:59;;;;;;;35.10;15.65;;;;;;;;;;5085487;28;20140;-62
2022/03/15 06:40:26;;;;;;;31.30;15.20;;;;;;;;;;5090028;28;20053;-61
2022/03/15 06:42:53;;;;;;;29.52;14.63;;;;;;;;;;5077603;28;20582;-61
2022/03/15 06:45:19;;;;;;;27.23;14.60;;;;;;;;;;5082358;28;20056;-61
2022/03/15 06:47:46;;;;;;;31.15;14.65;;;;;;;;;;5073839;28;20049;-61
2022/03/15 06:50:13;;;;;;;31.73;15.77;;;;;;;;;;5069251;28;20622;-61
2022/03/15 06:52:40;;;;;;;32.85;15.45;;;;;;;;;;5069940;28;20136;-61
2022/03/15 06:55:07;;;;;;;30.05;13.95;;;;;;;;;;5075771;28;20055;-61
2022/03/15 06:57:34;;;;;;;32.92;14.48;;;;;;;;;;5079513;28;20138;-62
2022/03/15 07:00:02;;;;;;;29.40;15.37;;;;;;;;;;5088554;28;20080;-62
2022/03/15 07:02:28;;;;;;;31.13;14.43;;;;;;;;;;5071004;28;20442;-62
2022/03/15 07:04:55;;;;;;;29.85;15.27;;;;;;;;;;5067066;28;20055;-62
2022/03/15 07:07:21;;;;;;;28.38;14.73;;;;;;;;;;5086860;28;20523;-63
2022/03/15 07:09:48;;;;;;;29.88;15.10;;;;;;;;;;5088807;28;20436;-62
2022/03/15 07:12:14;;;;;;;34.35;15.27;;;;;;;;;;5068334;28;20552;-61
2022/03/15 07:14:41;;;;;;;31.98;14.27;;;;;;;;;;5076966;28;20056;-62
2022/03/15 07:17:08;;;;;;;30.52;14.57;;;;;;;;;;5069904;28;20096;-61
2022/03/15 07:19:34;;;;;;;32.10;14.73;;;;;;;;;;5075594;28;20057;-61
2022/03/15 07:22:00;;;;;;;28.08;14.02;;;;;;;;;;5077716;28;20443;-61
2022/03/15 07:24:27;;;;;;;32.10;14.07;;;;;;;;;;5088119;28;20979;-61
2022/03/15 07:26:53;;;;;;;35.80;13.93;;;;;;;;;;5067974;28;20152;-61
2022/03/15 07:29:19;;;;;;;30.73;14.35;;;;;;;;;;5066874;28;20511;-61
2022/03/15 07:31:46;;;;;;;32.35;14.15;;;;;;;;;;5067852;28;20487;-61
2022/03/15 07:34:13;;;;;;;31.77;14.25;;;;;;;;;;5068103;28;20057;-61
2022/03/15 07:36:39;;;;;;;29.58;14.65;;;;;;;;;;5088273;28;20053;-61
2022/03/15 07:39:06;;;;;;;28.05;13.38;;;;;;;;;;5085640;28;20499;-61
2022/03/15 07:41:34;;;;;;;29.95;14.15;;;;;;;;;;5075226;28;20052;-61
2022/03/15 07:44:00;;;;;;;26.48;13.85;;;;;;;;;;5068395;28;20132;-61
2022/03/15 07:46:26;;;;;;;31.55;14.50;;;;;;;;;;5069396;28;20049;-61
2022/03/15 07:48:53;;;;;;;25.05;13.45;;;;;;;;;;5068814;28;20053;-63
2022/03/15 07:51:19;;;;;;;34.80;14.32;;;;;;;;;;5069573;28;20091;-63
2022/03/15 07:53:45;;;;;;;30.63;14.25;;;;;;;;;;5087560;28;20192;-62
2022/03/15 07:56:12;;;;;;;27.30;14.27;;;;;;;;;;5088088;28;20057;-62
2022/03/15 07:58:38;;;;;;;28.95;13.82;;;;;;;;;;5081723;28;20053;-62
2022/03/15 08:01:05;;;;;;;29.02;13.20;;;;;;;;;;5081262;28;20057;-61
2022/03/15 08:03:31;;;;;;;30.30;15.13;;;;;;;;;;5068342;28;20057;-62
2022/03/15 08:05:59;;;;;;;33.08;14.20;;;;;;;;;;5085340;28;20139;-63
2022/03/15 08:08:25;;;;;;;26.07;13.87;;;;;;;;;;5079260;28;20094;-62
2022/03/15 08:10:53;;;;;;;24.02;12.68;;;;;;;;;;5077208;28;20641;-63
2022/03/15 08:13:19;;;;;;;32.40;13.80;;;;;;;;;;5087376;28;20052;-63
2022/03/15 08:15:46;;;;;;;28.83;13.57;;;;;;;;;;5073755;28;20056;-65
2022/03/15 08:18:13;;;;;;;26.37;13.83;;;;;;;;;;5068904;28;20195;-64
2022/03/15 08:20:41;;;;;;;27.77;13.40;;;;;;;;;;5067998;28;20518;-62
2022/03/15 08:23:07;;;;;;;25.98;14.00;;;;;;;;;;5067512;28;20049;-62
2022/03/15 08:25:34;;;;;;;29.15;13.95;;;;;;;;;;5070151;28;20055;-63
2022/03/15 08:28:01;;;;;;;24.00;12.77;;;;;;;;;;5082825;28;20053;-64
2022/03/15 08:30:28;;;;;;;33.17;12.27;;;;;;;;;;5068382;28;20063;-63
2022/03/15 08:32:55;;;;;;;31.60;12.75;;;;;;;;;;5069712;28;20059;-63
2022/03/15 08:35:21;;;;;;;28.40;12.80;;;;;;;;;;5081058;28;20055;-63
2022/03/15 08:37:50;;;;;;;31.30;13.50;;;;;;;;;;5071211;28;20064;-64
2022/03/15 08:40:17;;;;;;;25.48;12.48;;;;;;;;;;5078665;28;20139;-65
2022/03/15 08:42:44;;;;;;;25.70;12.82;;;;;;;;;;5071120;28;20453;-66
2022/03/15 08:45:10;;;;;;;31.13;11.98;;;;;;;;;;5088618;28;20144;-66
2022/03/15 08:47:38;;;;;;;22.45;11.30;;;;;;;;;;5077729;28;20596;-66
2022/03/15 08:50:05;;;;;;;22.35;11.98;;;;;;;;;;5073131;28;20057;-65
2022/03/15 08:52:32;;;;;;;23.83;11.30;;;;;;;;;;5066981;28;20053;-65
2022/03/15 08:54:58;;;;;;;27.45;11.32;;;;;;;;;;5077051;28;20052;-65
2022/03/15 08:57:28;;;;;;;23.45;11.23;;;;;;;;;;5079193;28;20139;-66
2022/03/15 08:59:58;;;;;;;30.48;11.80;;;;;;;;;;5082792;28;20057;-64
2022/03/15 09:02:24;;;;;;;27.13;10.63;;;;;;;;;;5069373;28;20049;-65
2022/03/15 09:04:51;;;;;;;23.27;11.40;;;;;;;;;;5070884;28;20048;-64
2022/03/15 09:07:17;;;;;;;17.73;10.65;;;;;;;;;;5083705;28;20509;-65
2022/03/15 09:09:43;;;;;;;19.92;10.95;;;;;;;;;;5076775;28;20056;-65
2022/03/15 09:12:10;;;;;;;22.52;10.70;;;;;;;;;;5077820;28;20052;-67
2022/03/15 09:14:37;;;;;;;21.55;11.20;;;;;;;;;;5082334;28;20510;-66
2022/03/15 09:17:05;;;;;;;17.67;9.70;;;;;;;;;;5075050;28;20059;-64
2022/03/15 09:19:32;;;;;;;22.27;10.30;;;;;;;;;;5080418;28;20241;-64
2022/03/15 09:22:02;;;;;;;23.92;10.07;;;;;;;;;;5076281;28;20099;-67
2022/03/15 09:24:31;;;;;;;20.42;9.02;;;;;;;;;;5074822;28;20059;-65
2022/03/15 09:26:57;;;;;;;17.25;9.13;;;;;;;;;;5085267;28;20159;-65
2022/03/15 09:29:24;;;;;;;15.63;8.40;;;;;;;;;;5086680;28;20063;-66
2022/03/15 09:31:51;;;;;;;19.05;8.27;;;;;;;;;;5086625;28;20048;-65
2022/03/15 09:34:18;;;;;;;22.90;8.40;;;;;;;;;;5077553;28;20497;-65
2022/03/15 09:36:44;;;;;;;16.95;7.30;;;;;;;;;;5067111;28;20052;-66
2022/03/15 09:39:11;;;;;;;26.70;8.57;;;;;;;;;;5066342;28;20055;-66
2022/03/15 09:41:38;;;;;;;16.83;7.65;;;;;;;;;;5066764;28;20053;-64
2022/03/15 09:44:06;;;;;;;28.15;9.48;;;;;;;;;;5067524;28;20572;-65
2022/03/15 09:46:37;;;;;;;18.65;7.60;;;;;;;;;;5067251;28;20064;-65
2022/03/15 09:49:24;;;;;;;15.48;7.30;;;;;;;;;;5067106;28;20049;-65
2022/03/15 09:51:51;;;;;;;;;;;;;;;;;;5068265;28;20141;-64
2022/03/15 09:54:18;;;;;;;15.90;7.05;;;;;;;;;;5068531;28;44651;-65
2022/03/15 09:56:45;;;;;;;19.13;7.20;;;;;;;;;;5070575;28;20057;-65
2022/03/15 09:59:14;;;;;;;17.98;7.32;;;;;;;;;;5069967;28;20115;-66
2022/03/15 10:01:41;;;;;;;14.32;7.57;;;;;;;;;;5075727;28;20061;-66
2022/03/15 10:04:08;;;;;;;16.13;7.57;;;;;;;;;;5090038;28;20052;-65
2022/03/15 10:06:37;;;;;;;14.93;7.43;;;;;;;;;;5091465;28;20056;-65
2022/03/15 10:09:04;;;;;;;16.10;7.22;;;;;;;;;;5090507;28;20056;-65
2022/03/15 10:11:30;;;;;;;13.30;6.75;;;;;;;;;;5089754;28;20064;-65
2022/03/15 10:14:00;;;;;;;15.68;7.53;;;;;;;;;;5090663;28;20045;-65
2022/03/15 10:16:30;;;;;;;19.20;7.07;;;;;;;;;;5090554;28;20399;-65
2022/03/15 10:19:00;;;;;;;19.15;7.13;;;;;;;;;;5090106;28;20131;-65
2022/03/15 10:21:40;;;;;;;16.30;6.20;;;;;;;;;;5078027;28;20069;-64
2022/03/15 10:24:07;;;;;;;22.10;6.88;;;;;;;;;;5069568;28;20153;-66
2022/03/15 10:26:36;;;;;;;14.00;6.90;;;;;;;;;;5070486;28;20045;-66
2022/03/15 10:29:03;;;;;;;16.20;6.60;;;;;;;;;;5069337;28;20057;-65
2022/03/15 10:31:29;;;;;;;16.60;6.13;;;;;;;;;;5070020;28;20139;-65
2022/03/15 10:34:00;;;;;;;14.35;6.13;;;;;;;;;;5069484;28;20077;-66
2022/03/15 10:36:36;;;;;;;15.35;6.30;;;;;;;;;;5069427;28;20081;-65
2022/03/15 10:39:03;;;;;;;17.17;7.13;;;;;;;;;;5069600;28;20443;-65
2022/03/15 10:41:29;;;;;;;17.17;8.27;;;;;;;;;;5070160;28;20144;-65
2022/03/15 10:43:57;;;;;;;21.77;8.32;;;;;;;;;;5070016;28;20099;-65
2022/03/15 10:46:25;;;;;;;15.37;7.37;;;;;;;;;;5069825;28;20478;-65
2022/03/15 10:49:00;;;;;;;16.65;6.85;;;;;;;;;;5069433;28;20296;-66
2022/03/15 10:51:26;;;;;;;17.83;7.40;;;;;;;;;;5070052;28;20565;-65
2022/03/15 10:54:00;;;;;;;17.10;7.60;;;;;;;;;;5068033;28;20057;-65
2022/03/15 10:56:26;;;;;;;15.95;6.90;;;;;;;;;;5068796;28;20586;-65
2022/03/15 10:58:54;;;;;;;13.50;6.90;;;;;;;;;;5075815;28;20071;-65
2022/03/15 11:01:21;;;;;;;15.37;6.70;;;;;;;;;;5087149;28;20050;-65
2022/03/15 11:03:53;;;;;;;14.93;6.78;;;;;;;;;;5082039;28;20103;-65
2022/03/15 11:06:31;;;;;;;18.38;6.95;;;;;;;;;;5072356;28;20057;-65
2022/03/15 11:08:58;;;;;;;13.95;6.40;;;;;;;;;;5081798;28;20544;-65
2022/03/15 11:11:28;;;;;;;15.40;6.20;;;;;;;;;;5069188;28;20203;-65
2022/03/15 11:14:03;;;;;;;14.90;6.38;;;;;;;;;;5069265;28;20049;-64
2022/03/15 11:16:30;;;;;;;19.52;7.53;;;;;;;;;;5075456;28;20048;-65
2022/03/15 11:18:59;;;;;;;11.85;5.70;;;;;;;;;;5087639;28;20140;-66
2022/03/15 11:21:27;;;;;;;15.38;6.70;;;;;;;;;;5087290;28;20056;-64
2022/03/15 11:23:55;;;;;;;17.63;7.25;;;;;;;;;;5078449;28;20145;-65
2022/03/15 11:26:22;;;;;;;15.77;6.47;;;;;;;;;;5087245;28;20078;-65
2022/03/15 11:28:49;;;;;;;12.98;6.03;;;;;;;;;;5069390;28;20164;-65
2022/03/15 11:31:15;;;;;;;14.50;6.65;;;;;;;;;;5077042;28;20055;-66
2022/03/15 11:33:44;;;;;;;14.00;5.93;;;;;;;;;;5075142;28;20080;-65
2022/03/15 11:36:12;;;;;;;12.35;5.65;;;;;;;;;;5068550;28;20053;-65
2022/03/15 11:38:40;;;;;;;11.55;5.00;;;;;;;;;;5071080;28;20057;-65
2022/03/15 11:41:09;;;;;;;13.98;4.85;;;;;;;;;;5073173;28;20434;-65
2022/03/15 11:43:50;;;;;;;17.38;4.70;;;;;;;;;;5083459;28;20469;-66
2022/03/15 11:46:20;;;;;;;11.35;4.65;;;;;;;;;;5086011;28;20506;-65
2022/03/15 11:48:55;;;;;;;11.23;4.25;;;;;;;;;;5084301;28;20063;-65
2022/03/15 11:51:40;;;;;;;11.93;4.43;;;;;;;;;;5075535;28;20056;-65
2022/03/15 11:54:28;;;;;;;27.02;4.68;;;;;;;;;;5071415;28;20053;-66
2022/03/15 11:56:58;;;;;;;12.05;3.97;;;;;;;;;;5079013;28;20445;-65
2022/03/15 11:59:25;;;;;;;12.00;3.58;;;;;;;;;;5069008;28;20132;-65
2022/03/15 12:01:52;;;;;;;13.68;4.43;;;;;;;;;;5068379;28;20172;-65
2022/03/15 12:04:22;;;;;;;12.00;4.25;;;;;;;;;;5080819;28;20476;-64
2022/03/15 12:06:55;;;;;;;11.82;4.13;;;;;;;;;;5068455;28;20561;-65
2022/03/15 12:09:24;;;;;;;9.50;4.50;;;;;;;;;;5067440;28;20535;-65
2022/03/15 12:12:06;;;;;;;11.57;3.83;;;;;;;;;;5074014;28;20053;-65
2022/03/15 12:14:39;;;;;;;10.15;3.50;;;;;;;;;;5077751;28;20049;-65
2022/03/15 12:17:06;;;;;;;9.57;3.90;;;;;;;;;;5088172;28;20060;-65
2022/03/15 12:19:41;;;;;;;9.50;4.07;;;;;;;;;;5085964;28;20055;-65
2022/03/15 12:22:11;;;;;;;7.82;3.97;;;;;;;;;;5086451;28;20421;-65
2022/03/15 12:24:41;;;;;;;8.55;3.40;;;;;;;;;;5078052;28;20548;-65
2022/03/15 12:27:18;;;;;;;13.75;3.83;;;;;;;;;;5070333;28;20064;-64
2022/03/15 12:29:52;;;;;;;11.75;3.72;;;;;;;;;;5070368;28;20073;-65
2022/03/15 12:32:18;;;;;;;13.05;3.72;;;;;;;;;;5068529;28;20052;-66
2022/03/15 12:34:49;;;;;;;11.27;3.03;;;;;;;;;;5083849;28;20067;-69
2022/03/15 12:37:15;;;;;;;13.57;3.72;;;;;;;;;;5087851;28;20052;-64
2022/03/15 12:39:54;;;;;;;12.02;3.80;;;;;;;;;;5084372;28;20052;-64
2022/03/15 12:42:22;;;;;;;14.98;4.38;;;;;;;;;;5075014;28;20434;-65
2022/03/15 12:44:52;;;;;;;12.90;4.27;;;;;;;;;;5077155;28;20136;-65
2022/03/15 12:47:20;;;;;;;8.48;3.58;;;;;;;;;;5080605;28;20059;-65
2022/03/15 12:50:07;;;;;;;16.97;4.53;;;;;;;;;;5067443;28;20144;-65
2022/03/15 12:52:37;;;;;;;13.93;4.05;;;;;;;;;;5070997;28;20194;-65
2022/03/15 12:55:04;;;;;;;10.10;4.03;;;;;;;;;;5082264;28;20053;-66
2022/03/15 12:57:30;;;;;;;12.25;4.28;;;;;;;;;;5085952;28;20084;-65
2022/03/15 12:59:56;;;;;;;11.65;4.65;;;;;;;;;;5070960;28;20048;-65
2022/03/15 13:02:23;;;;;;;11.38;4.93;;;;;;;;;;5081275;28;20717;-65
2022/03/15 13:04:49;;;;;;;10.77;4.68;;;;;;;;;;5083917;28;20608;-66
2022/03/15 13:07:26;;;;;;;10.50;3.63;;;;;;;;;;5067616;28;20049;-64
2022/03/15 13:09:56;;;;;;;11.48;4.45;;;;;;;;;;5075634;28;20064;-64
2022/03/15 13:12:22;;;;;;;16.55;4.65;;;;;;;;;;5080978;28;20552;-64
2022/03/15 13:14:52;;;;;;;12.27;4.07;;;;;;;;;;5082955;28;20053;-64
2022/03/15 13:17:19;;;;;;;12.82;4.35;;;;;;;;;;5066499;28;20049;-64
2022/03/15 13:19:47;;;;;;;10.52;4.68;;;;;;;;;;5067951;28;20084;-65
2022/03/15 13:22:14;;;;;;;;;;;;;;;;;;5067641;28;20710;-66
2022/03/15 13:24:40;;;;;;;14.27;4.80;;;;;;;;;;5082705;28;45773;-65
2022/03/15 13:27:08;;;;;;;11.10;4.55;;;;;;;;;;5088902;28;20600;-66
2022/03/15 13:29:40;;;;;;;11.82;4.35;;;;;;;;;;5083916;28;20059;-67
2022/03/15 13:32:07;;;;;;;13.02;4.68;;;;;;;;;;5073760;27;20155;-66
2022/03/15 13:34:33;;;;;;;12.32;4.45;;;;;;;;;;5099151;28;20051;-66
2022/03/15 13:37:01;;;;;;;14.60;5.15;;;;;;;;;;5089475;28;20063;-67
2022/03/15 13:39:27;;;;;;;13.52;4.90;;;;;;;;;;5080213;28;20055;-68
2022/03/15 13:41:54;;;;;;;13.45;5.50;;;;;;;;;;5078567;28;20171;-67
2022/03/15 13:44:22;;;;;;;14.63;5.13;;;;;;;;;;5077291;28;20529;-67
2022/03/15 13:46:50;;;;;;;;;;;;;;;;;;5082847;28;20059;-67
2022/03/15 13:49:22;;;;;;;10.33;4.43;;;;;;;;;;5080687;28;45351;-66
2022/03/15 13:51:49;;;;;;;10.85;4.72;;;;;;;;;;5073587;28;20648;-66
2022/03/15 13:54:17;;;;;;;11.73;4.63;;;;;;;;;;5070400;28;20041;-67
2022/03/15 13:56:47;;;;;;;9.97;4.67;;;;;;;;;;5077537;28;20175;-67
2022/03/15 13:59:15;;;;;;;13.02;4.78;;;;;;;;;;5076755;28;20586;-66
2022/03/15 14:01:43;;;;;;;11.30;4.40;;;;;;;;;;5084920;28;20055;-68
2022/03/15 14:04:10;;;;;;;12.13;4.97;;;;;;;;;;5079999;28;20053;-66
2022/03/15 14:06:41;;;;;;;10.93;4.47;;;;;;;;;;5078510;28;20136;-66
2022/03/15 14:09:08;;;;;;;13.73;5.20;;;;;;;;;;5079070;28;20593;-66
2022/03/15 14:11:40;;;;;;;12.55;4.28;;;;;;;;;;5069516;28;20064;-65
2022/03/15 14:14:09;;;;;;;11.32;4.78;;;;;;;;;;5069120;28;20057;-65
2022/03/15 14:16:39;;;;;;;12.18;4.10;;;;;;;;;;5070367;28;20071;-66
2022/03/15 14:19:09;;;;;;;10.82;4.32;;;;;;;;;;5069497;28;20053;-66
2022/03/15 14:21:40;;;;;;;11.20;4.10;;;;;;;;;;5078355;28;20586;-68
2022/03/15 14:24:07;;;;;;;9.52;4.60;;;;;;;;;;5072869;28;20170;-66
2022/03/15 14:26:33;;;;;;;13.55;4.88;;;;;;;;;;5081861;28;20148;-67
2022/03/15 14:29:04;;;;;;;10.18;3.50;;;;;;;;;;5073772;28;20049;-66
2022/03/15 14:31:36;;;;;;;10.90;4.00;;;;;;;;;;5076578;28;20067;-67
2022/03/15 14:34:06;;;;;;;13.63;4.18;;;;;;;;;;5069945;28;20494;-66